createdAt,value
2023-10-02T00:00:00.000Z,35.46
2023-10-02T00:15:00.000Z,34.95
2023-10-02T00:30:00.000Z,34.67
2023-10-02T00:45:00.000Z,33.98
2023-10-02T01:00:00.000Z,34.71
2023-10-02T01:15:00.000Z,35.05
2023-10-02T01:30:00.000Z,35.74
2023-10-02T01:45:00.000Z,35.54
2023-10-02T02:00:00.000Z,35.61
2023-10-02T02:15:00.000Z,35.73
2023-10-02T02:30:00.000Z,35.6
2023-10-02T02:45:00.000Z,35.73
2023-10-02T03:00:00.000Z,36.51
2023-10-02T03:15:00.000Z,37.22
2023-10-02T03:30:00.000Z,37.46
2023-10-02T03:45:00.000Z,38.26
2023-10-02T04:00:00.000Z,38.81
2023-10-02T04:15:00.000Z,38.68
2023-10-02T04:30:00.000Z,38.68
2023-10-02T04:45:00.000Z,39.44
2023-10-02T05:00:00.000Z,40.04
2023-10-02T05:15:00.000Z,40
2023-10-02T05:30:00.000Z,40.07
2023-10-02T05:45:00.000Z,38.01
2023-10-02T06:00:00.000Z,36.11
2023-10-02T06:15:00.000Z,36.61
2023-10-02T06:30:00.000Z,36.22
2023-10-02T06:45:00.000Z,36.34
2023-10-02T07:00:00.000Z,38.62
2023-10-02T07:15:00.000Z,39.82
2023-10-02T07:30:00.000Z,40.05
2023-10-02T07:45:00.000Z,40.51
2023-10-02T08:00:00.000Z,40.55
2023-10-02T08:15:00.000Z,39.87
2023-10-02T08:30:00.000Z,40.31
2023-10-02T08:45:00.000Z,39.62
2023-10-02T09:00:00.000Z,38.93
2023-10-02T09:15:00.000Z,40.31
2023-10-02T09:30:00.000Z,39.02
2023-10-02T09:45:00.000Z,40.04
2023-10-02T10:00:00.000Z,40.2
2023-10-02T10:15:00.000Z,39.85
2023-10-02T10:30:00.000Z,38.34
2023-10-02T10:45:00.000Z,39.24
2023-10-02T11:00:00.000Z,39.52
2023-10-02T11:15:00.000Z,39.18
2023-10-02T11:30:00.000Z,38.92
2023-10-02T11:45:00.000Z,39.16
2023-10-02T12:00:00.000Z,38.49
2023-10-02T12:15:00.000Z,38.02
2023-10-02T12:30:00.000Z,37.8
2023-10-02T12:45:00.000Z,37.11
2023-10-02T13:00:00.000Z,37.14
2023-10-02T13:15:00.000Z,36.78
2023-10-02T13:30:00.000Z,37.42
2023-10-02T13:45:00.000Z,36.99
2023-10-02T14:00:00.000Z,37.38
2023-10-02T14:15:00.000Z,37.18
2023-10-02T14:30:00.000Z,37.68
2023-10-02T14:45:00.000Z,38.06
2023-10-02T15:00:00.000Z,38.35
2023-10-02T15:15:00.000Z,38.27
2023-10-02T15:30:00.000Z,39.96
2023-10-02T15:45:00.000Z,38.44
2023-10-02T16:00:00.000Z,38.78
2023-10-02T16:15:00.000Z,39.98
2023-10-02T16:30:00.000Z,38.51
2023-10-02T16:45:00.000Z,37.86
2023-10-02T17:00:00.000Z,40.22
2023-10-02T17:15:00.000Z,38.4
2023-10-02T17:30:00.000Z,38.16
2023-10-02T17:45:00.000Z,36.6
2023-10-02T18:00:00.000Z,36.21
2023-10-02T18:15:00.000Z,39.62
2023-10-02T18:30:00.000Z,41.38
2023-10-02T18:45:00.000Z,36.49
2023-10-02T19:00:00.000Z,36
2023-10-02T19:15:00.000Z,34.92
2023-10-02T19:30:00.000Z,35.34
2023-10-02T19:45:00.000Z,35.09
2023-10-02T20:00:00.000Z,36.38
2023-10-02T20:15:00.000Z,37.25
2023-10-02T20:30:00.000Z,36.73
2023-10-02T20:45:00.000Z,36.46
2023-10-02T21:00:00.000Z,35.81
2023-10-02T21:15:00.000Z,35.15
2023-10-02T21:30:00.000Z,33.6
2023-10-02T21:45:00.000Z,28.4
2023-10-02T22:00:00.000Z,27.78
2023-10-02T22:15:00.000Z,28.28
2023-10-02T22:30:00.000Z,29.4
2023-10-02T22:45:00.000Z,30.01
2023-10-02T23:00:00.000Z,31.4
2023-10-02T23:15:00.000Z,32.15
2023-10-02T23:30:00.000Z,29.87
2023-10-02T23:45:00.000Z,31.96
